Time;durP1;ratioP1;P1;durP2;ratioP2;P2;SDS_P1;SDS_P2;PMS_P1;PMS_P2;Temp;Humidity;BMP_temperature;BMP_pressure;BME280_temperature;BME280_humidity;BME280_pressure;Samples;Min_cycle;Max_cycle;Signal;HPM_P1;HPM_P2
2022/10/07 00:01:13;;;;;;;15.40;4.67;;;;;;;10.09;88.43;102673.03;5241700;28;20404;-73
2022/10/07 00:03:44;;;;;;;15.60;4.47;;;;;;;10.38;87.75;102668.75;5233626;28;20029;-73
2022/10/07 00:06:18;;;;;;;14.83;4.30;;;;;;;10.36;86.85;102664.44;5234541;28;20560;-73
2022/10/07 00:08:51;;;;;;;18.48;5.07;;;;;;;9.97;89.54;102658.53;5234358;28;20033;-73
2022/10/07 00:11:25;;;;;;;16.50;5.10;;;;;;;10.11;89.85;102665.13;5247571;28;20021;-73
2022/10/07 00:13:58;;;;;;;;;;;;;;;10.38;85.52;102668.75;5253787;28;20029;-73
2022/10/07 00:16:32;;;;;;;18.13;5.00;;;;;;;10.07;90.26;102669.59;5238339;28;19924;-73
2022/10/07 00:19:07;;;;;;;18.70;5.30;;;;;;;9.94;92.68;102663.88;5240232;28;20045;-73
2022/10/07 00:21:39;;;;;;;17.73;5.10;;;;;;;9.95;92.43;102662.13;5246609;28;20036;-73
2022/10/07 00:24:10;;;;;;;13.53;4.43;;;;;;;9.84;93.45;102662.41;5245637;28;20021;-73
2022/10/07 00:26:41;;;;;;;13.03;5.17;;;;;;;9.86;94.91;102656.22;5252805;28;20047;-73
2022/10/07 00:29:13;;;;;;;14.17;5.17;;;;;;;10.00;95.13;102653.22;5248245;28;20611;-73
2022/10/07 00:31:44;;;;;;;13.63;4.50;;;;;;;9.88;94.21;102646.56;5251944;28;20033;-73
2022/10/07 00:34:15;;;;;;;21.30;6.40;;;;;;;9.98;93.61;102639.34;5247649;28;20171;-73
2022/10/07 00:36:49;;;;;;;16.27;5.17;;;;;;;9.88;94.47;102641.34;5254506;28;20024;-73
2022/10/07 00:39:20;;;;;;;13.77;4.35;;;;;;;9.79;95.35;102649.47;5253427;28;20479;-73
2022/10/07 00:41:52;;;;;;;17.50;4.70;;;;;;;9.75;96.60;102643.44;5253036;28;20056;-74
2022/10/07 00:44:41;;;;;;;12.87;3.80;;;;;;;10.10;93.60;102645.97;5239276;28;20029;-73
2022/10/07 00:47:23;;;;;;;17.13;4.93;;;;;;;9.79;97.26;102641.59;5237221;28;20102;-75
2022/10/07 00:50:03;;;;;;;14.37;4.30;;;;;;;9.88;96.72;102628.25;5244955;28;20103;-73
2022/10/07 00:52:44;;;;;;;16.30;5.13;;;;;;;9.92;95.58;102627.28;5253659;28;20559;-73
2022/10/07 00:55:22;;;;;;;11.73;4.57;;;;;;;9.62;96.44;102632.44;5253622;28;20025;-73
2022/10/07 00:57:59;;;;;;;17.43;5.40;;;;;;;9.62;96.56;102632.44;5245838;28;20109;-73
2022/10/07 01:00:31;;;;;;;16.87;4.33;;;;;;;9.66;98.16;102631.47;5235146;28;20719;-72
2022/10/07 01:03:02;;;;;;;18.63;5.13;;;;;;;9.64;98.48;102614.94;5241297;28;20037;-73
2022/10/07 01:05:34;;;;;;;23.20;5.67;;;;;;;9.68;98.94;102616.59;5253433;28;20080;-72
2022/10/07 01:08:05;;;;;;;16.47;4.20;;;;;;;9.61;99.42;102622.88;5252477;28;20039;-73
2022/10/07 01:10:59;;;;;;;14.73;5.23;;;;;;;9.77;97.24;102610.22;5233947;28;20029;-73
2022/10/07 01:13:41;;;;;;;19.50;4.73;;;;;;;9.56;100.00;102612.53;5232328;28;20045;-73
2022/10/07 01:16:31;;;;;;;21.07;5.20;;;;;;;9.55;100.00;102615.19;5233462;28;20598;-73
2022/10/07 01:19:24;;;;;;;13.80;4.00;;;;;;;9.62;99.09;102606.28;5232006;28;20383;-72
2022/10/07 01:22:28;;;;;;;16.40;4.57;;;;;;;9.40;100.00;102606.88;5247492;28;20025;-74
2022/10/07 01:25:11;;;;;;;17.57;4.67;;;;;;;9.59;100.00;102602.88;5237081;28;20051;-73
2022/10/07 01:27:49;;;;;;;12.87;4.57;;;;;;;9.39;100.00;102599.06;5248312;28;20797;-72
2022/10/07 01:30:20;;;;;;;21.70;4.67;;;;;;;9.34;100.00;102593.09;5253536;28;20025;-73
2022/10/07 01:33:04;;;;;;;19.73;4.63;;;;;;;9.38;100.00;102586.88;5244998;28;20051;-73
2022/10/07 01:35:36;;;;;;;14.47;4.73;;;;;;;9.32;100.00;102588.75;5242412;28;20408;-73
2022/10/07 01:38:11;;;;;;;19.70;5.00;;;;;;;9.27;100.00;102587.16;5252478;28;20025;-73
2022/10/07 01:40:53;;;;;;;18.93;5.07;;;;;;;9.32;100.00;102578.28;5252787;28;20033;-74
2022/10/07 01:43:24;;;;;;;19.20;4.27;;;;;;;9.43;100.00;102564.94;5242057;28;20483;-74
2022/10/07 01:45:56;;;;;;;16.53;5.20;;;;;;;9.22;100.00;102557.66;5250830;28;20029;-73
2022/10/07 01:48:27;;;;;;;13.63;4.20;;;;;;;9.16;100.00;102562.16;5251982;28;20036;-73
2022/10/07 01:51:01;;;;;;;17.77;5.23;;;;;;;9.26;100.00;102548.84;5238254;28;20065;-73
2022/10/07 01:53:50;;;;;;;16.47;5.13;;;;;;;9.31;100.00;102554.81;5252774;28;20491;-73
2022/10/07 01:56:30;;;;;;;11.57;4.17;;;;;;;9.52;100.00;102545.53;5253117;28;20049;-73
2022/10/07 01:59:45;;;;;;;21.87;5.60;;;;;;;9.59;100.00;102538.34;5252412;28;20025;-73
2022/10/07 02:02:45;;;;;;;14.27;4.80;;;;;;;9.19;100.00;102514.16;5229992;28;20125;-73
2022/10/07 02:05:28;;;;;;;22.03;6.03;;;;;;;9.36;100.00;102533.75;5232296;28;20049;-73
2022/10/07 02:08:14;;;;;;;17.87;5.83;;;;;;;9.53;100.00;102528.91;5246309;28;20056;-73
2022/10/07 02:10:48;;;;;;;17.90;5.20;;;;;;;9.56;100.00;102528.00;5253020;28;20659;-74
2022/10/07 02:13:35;;;;;;;19.70;5.03;;;;;;;9.43;100.00;102528.34;5249433;28;20488;-74
2022/10/07 02:16:20;;;;;;;21.00;5.57;;;;;;;9.40;100.00;102528.41;5251819;28;20033;-73
2022/10/07 02:18:52;;;;;;;16.47;6.30;;;;;;;9.48;100.00;102514.28;5241014;28;20033;-74
2022/10/07 02:21:28;;;;;;;18.47;4.90;;;;;;;9.44;100.00;102519.56;5247075;28;20029;-73
2022/10/07 02:24:00;;;;;;;13.73;5.83;;;;;;;9.51;100.00;102514.19;5247354;28;20080;-73
2022/10/07 02:26:34;;;;;;;22.60;5.67;;;;;;;9.44;100.00;102513.50;5238210;28;20060;-73
2022/10/07 02:29:09;;;;;;;22.52;5.63;;;;;;;9.37;100.00;102515.44;5240937;28;20119;-73
2022/10/07 02:31:43;;;;;;;18.73;6.10;;;;;;;9.15;100.00;102502.94;5246921;28;20523;-73
2022/10/07 02:34:18;;;;;;;24.17;7.65;;;;;;;9.45;100.00;102509.97;5251035;28;20032;-73
2022/10/07 02:36:54;;;;;;;18.20;5.90;;;;;;;9.39;100.00;102500.53;5241837;28;20483;-73
2022/10/07 02:39:27;;;;;;;18.17;6.27;;;;;;;9.32;100.00;102493.75;5233970;28;20099;-73
2022/10/07 02:42:17;;;;;;;16.97;4.83;;;;;;;9.09;100.00;102492.66;5252547;28;20053;-73
2022/10/07 02:45:12;;;;;;;21.23;5.33;;;;;;;9.27;100.00;102490.41;5255713;28;20029;-73
2022/10/07 02:47:51;;;;;;;25.60;6.00;;;;;;;9.34;100.00;102497.19;5255850;28;20135;-73
2022/10/07 02:50:25;;;;;;;16.30;4.83;;;;;;;9.10;100.00;102481.28;5240656;28;20531;-73
2022/10/07 02:53:00;;;;;;;18.05;5.40;;;;;;;8.98;100.00;102474.66;5233494;28;20021;-73
2022/10/07 02:55:33;;;;;;;16.93;5.13;;;;;;;8.99;100.00;102478.97;5234931;28;20053;-73
2022/10/07 02:58:07;;;;;;;18.73;6.40;;;;;;;9.10;100.00;102476.06;5234785;28;20033;-73
2022/10/07 03:00:45;;;;;;;16.58;5.60;;;;;;;9.02;100.00;102478.91;5253018;28;20054;-72
2022/10/07 03:03:16;;;;;;;23.07;6.27;;;;;;;8.93;100.00;102477.41;5234777;28;20046;-73
2022/10/07 03:05:48;;;;;;;18.17;6.90;;;;;;;8.85;100.00;102461.03;5245305;28;20439;-73
2022/10/07 03:08:20;;;;;;;14.77;5.93;;;;;;;8.78;100.00;102452.50;5233397;28;20025;-72
2022/10/07 03:10:51;;;;;;;16.77;5.63;;;;;;;8.93;100.00;102468.69;5245471;28;20053;-74
2022/10/07 03:13:23;;;;;;;21.03;5.67;;;;;;;8.85;100.00;102460.19;5255312;28;20479;-73
2022/10/07 03:15:54;;;;;;;20.07;5.60;;;;;;;8.90;100.00;102459.16;5255136;28;20498;-73
2022/10/07 03:18:27;;;;;;;21.73;4.73;;;;;;;8.87;100.00;102455.78;5255315;28;20216;-73
2022/10/07 03:20:59;;;;;;;13.93;5.20;;;;;;;8.79;100.00;102448.16;5254640;28;20047;-73
2022/10/07 03:23:31;;;;;;;14.03;5.67;;;;;;;8.72;100.00;102444.84;5247535;28;20048;-72
2022/10/07 03:26:02;;;;;;;15.70;5.57;;;;;;;8.69;100.00;102456.22;5254860;28;20025;-73
2022/10/07 03:28:36;;;;;;;16.27;5.77;;;;;;;8.72;100.00;102447.47;5252855;28;20029;-73
2022/10/07 03:31:10;;;;;;;17.17;5.80;;;;;;;8.61;100.00;102447.72;5253673;28;20047;-73
2022/10/07 03:33:42;;;;;;;18.40;4.57;;;;;;;8.86;100.00;102441.88;5253267;28;20571;-72
2022/10/07 03:36:13;;;;;;;20.63;4.93;;;;;;;8.59;100.00;102441.69;5237004;28;20034;-73
2022/10/07 03:38:44;;;;;;;18.10;5.83;;;;;;;8.70;100.00;102444.88;5241197;28;20104;-73
2022/10/07 03:41:17;;;;;;;23.37;6.00;;;;;;;8.58;100.00;102445.19;5234137;28;20040;-73
2022/10/07 03:43:49;;;;;;;20.80;6.20;;;;;;;8.54;100.00;102433.06;5234202;28;20029;-74
2022/10/07 03:46:20;;;;;;;19.80;5.37;;;;;;;8.46;100.00;102438.50;5246389;28;20086;-74
2022/10/07 03:48:51;;;;;;;19.77;5.33;;;;;;;8.50;100.00;102423.63;5238311;28;20017;-75
2022/10/07 03:51:23;;;;;;;14.87;5.70;;;;;;;8.70;100.00;102425.75;5253547;28;20166;-74
2022/10/07 03:53:56;;;;;;;17.03;5.43;;;;;;;8.58;100.00;102419.09;5253165;28;20037;-74
2022/10/07 03:56:27;;;;;;;16.00;5.60;;;;;;;8.45;100.00;102434.16;5249082;28;20029;-73
2022/10/07 03:58:59;;;;;;;20.97;5.93;;;;;;;8.69;100.00;102427.47;5251735;28;20059;-73
2022/10/07 04:01:30;;;;;;;18.20;4.80;;;;;;;8.67;100.00;102426.69;5239859;28;20029;-74
2022/10/07 04:04:01;;;;;;;16.57;5.90;;;;;;;8.71;100.00;102424.81;5251650;28;20040;-74
2022/10/07 04:06:33;;;;;;;16.80;5.80;;;;;;;8.61;100.00;102420.75;5242257;28;20045;-74
2022/10/07 04:09:05;;;;;;;21.30;6.57;;;;;;;8.53;100.00;102426.16;5244114;28;20527;-74
2022/10/07 04:11:39;;;;;;;25.17;6.40;;;;;;;8.35;100.00;102423.97;5251007;28;20029;-73
2022/10/07 04:14:10;;;;;;;20.60;5.72;;;;;;;8.59;100.00;102411.19;5246127;28;20104;-74
2022/10/07 04:16:41;;;;;;;15.63;5.70;;;;;;;8.64;100.00;102418.91;5244351;28;20107;-74
2022/10/07 04:19:13;;;;;;;16.03;5.97;;;;;;;8.73;100.00;102422.19;5251793;28;20549;-74
2022/10/07 04:21:44;;;;;;;20.87;5.77;;;;;;;8.73;100.00;102416.97;5253085;28;20499;-73
2022/10/07 04:24:15;;;;;;;16.13;5.47;;;;;;;8.56;100.00;102415.66;5246580;28;20487;-73
2022/10/07 04:26:47;;;;;;;14.10;5.37;;;;;;;8.51;100.00;102413.13;5232933;28;20048;-73
2022/10/07 04:29:18;;;;;;;16.43;5.47;;;;;;;8.28;100.00;102416.31;5231962;28;20484;-74
2022/10/07 04:31:49;;;;;;;9.90;4.70;;;;;;;8.54;100.00;102412.19;5236302;28;20021;-74
2022/10/07 04:34:21;;;;;;;18.90;5.60;;;;;;;8.33;100.00;102411.84;5248088;28;20341;-73
2022/10/07 04:36:53;;;;;;;18.97;5.40;;;;;;;8.22;100.00;102407.75;5246504;28;20028;-75
2022/10/07 04:39:24;;;;;;;20.07;5.90;;;;;;;8.17;100.00;102414.00;5240597;28;20037;-74
2022/10/07 04:41:55;;;;;;;14.67;5.00;;;;;;;8.11;100.00;102405.41;5247009;28;20115;-73
2022/10/07 04:44:27;;;;;;;17.07;5.73;;;;;;;8.35;100.00;102420.50;5253426;28;20423;-73
2022/10/07 04:46:58;;;;;;;15.53;5.70;;;;;;;8.26;100.00;102418.09;5253126;28;20025;-73
2022/10/07 04:49:30;;;;;;;15.37;5.57;;;;;;;8.21;100.00;102416.47;5244743;28;20040;-73
2022/10/07 04:52:01;;;;;;;18.40;6.07;;;;;;;8.17;100.00;102414.81;5231039;28;20104;-74
2022/10/07 04:54:33;;;;;;;20.07;6.57;;;;;;;8.35;100.00;102408.31;5239516;28;20044;-73
2022/10/07 04:57:04;;;;;;;16.03;5.57;;;;;;;8.39;100.00;102398.63;5253180;28;20029;-73
2022/10/07 04:59:35;;;;;;;17.30;4.93;;;;;;;8.27;100.00;102391.97;5251690;28;20036;-73
2022/10/07 05:02:07;;;;;;;20.77;6.63;;;;;;;8.25;100.00;102408.56;5250687;28;20044;-73
2022/10/07 05:04:38;;;;;;;15.63;5.27;;;;;;;8.28;100.00;102391.06;5240365;28;20083;-73
2022/10/07 05:07:09;;;;;;;23.27;6.73;;;;;;;8.14;100.00;102394.03;5252067;28;20033;-73
2022/10/07 05:09:41;;;;;;;24.63;6.37;;;;;;;8.21;100.00;102395.59;5242976;28;20029;-73
2022/10/07 05:12:12;;;;;;;19.77;5.90;;;;;;;8.09;100.00;102380.22;5230864;28;20036;-73
2022/10/07 05:14:44;;;;;;;17.20;6.50;;;;;;;8.12;100.00;102395.81;5232183;28;20044;-73
2022/10/07 05:17:15;;;;;;;20.47;6.87;;;;;;;8.03;100.00;102388.22;5241203;28;20303;-73
2022/10/07 05:19:47;;;;;;;17.47;6.43;;;;;;;8.25;100.00;102379.84;5253336;28;20064;-73
2022/10/07 05:22:18;;;;;;;19.83;6.87;;;;;;;8.14;100.00;102387.94;5236384;28;20531;-72
2022/10/07 05:24:49;;;;;;;19.50;6.83;;;;;;;8.19;100.00;102381.72;5232385;28;20476;-72
2022/10/07 05:27:20;;;;;;;20.57;6.60;;;;;;;8.25;100.00;102374.63;5250233;28;20025;-72
2022/10/07 05:29:51;;;;;;;20.30;7.07;;;;;;;8.08;100.00;102373.31;5252247;28;20087;-74
2022/10/07 05:32:23;;;;;;;18.07;6.60;;;;;;;8.28;100.00;102377.16;5252966;28;20021;-73
2022/10/07 05:34:54;;;;;;;22.87;6.97;;;;;;;8.15;100.00;102368.78;5233423;28;20068;-73
2022/10/07 05:37:27;;;;;;;14.67;5.93;;;;;;;8.07;100.00;102372.44;5230993;28;20033;-72
2022/10/07 05:39:58;;;;;;;20.23;6.03;;;;;;;7.99;100.00;102383.06;5230899;28;20533;-72
2022/10/07 05:42:29;;;;;;;22.93;6.40;;;;;;;8.04;100.00;102366.44;5250048;28;20255;-73
2022/10/07 05:45:01;;;;;;;17.80;5.97;;;;;;;8.20;100.00;102372.16;5252483;28;20025;-72
2022/10/07 05:47:32;;;;;;;18.30;6.07;;;;;;;8.30;100.00;102377.97;5249347;28;20048;-73
2022/10/07 05:50:05;;;;;;;17.90;5.40;;;;;;;7.99;100.00;102369.19;5243094;28;20097;-73
2022/10/07 05:52:37;;;;;;;20.90;5.50;;;;;;;8.05;100.00;102381.19;5242375;28;20305;-72
2022/10/07 05:55:08;;;;;;;19.20;5.63;;;;;;;8.08;100.00;102374.16;5246355;28;20428;-73
2022/10/07 05:57:40;;;;;;;22.03;6.60;;;;;;;8.07;100.00;102363.75;5245490;28;20443;-73
2022/10/07 06:00:12;;;;;;;24.80;6.47;;;;;;;8.03;100.00;102364.75;5244023;28;20053;-73
2022/10/07 06:02:43;;;;;;;21.10;6.23;;;;;;;8.09;100.00;102352.41;5245611;28;20083;-73
2022/10/07 06:05:15;;;;;;;20.57;6.47;;;;;;;8.22;100.00;102365.13;5242153;28;20053;-74
2022/10/07 06:07:46;;;;;;;15.07;5.50;;;;;;;7.99;100.00;102322.22;5241706;28;20483;-73
2022/10/07 06:13:08;;;;;;;19.27;7.23;;;;;;;8.25;100.00;102358.97;5247669;28;20661;-72
2022/10/07 06:15:39;;;;;;;16.47;5.10;;;;;;;8.30;100.00;102357.09;5246797;28;20025;-71
2022/10/07 06:18:11;;;;;;;19.43;5.93;;;;;;;8.27;100.00;102357.19;5241618;28;20095;-70
2022/10/07 06:20:51;;;;;;;23.70;4.77;;;;;;;8.33;100.00;102346.56;5247904;28;20030;-69
2022/10/07 06:23:23;;;;;;;14.57;4.77;;;;;;;8.37;100.00;102353.44;5244025;28;20091;-72
2022/10/07 06:25:56;;;;;;;21.83;6.20;;;;;;;8.42;100.00;102355.91;5239787;28;20033;-70
2022/10/07 06:28:38;;;;;;;13.17;4.63;;;;;;;8.42;100.00;102351.56;5237566;28;20026;-69
2022/10/07 06:31:12;;;;;;;18.03;4.43;;;;;;;8.41;100.00;102352.44;5245463;28;20025;-73
2022/10/07 06:33:43;;;;;;;18.90;5.47;;;;;;;8.48;100.00;102354.00;5243302;28;20037;-70
2022/10/07 06:36:15;;;;;;;25.60;5.77;;;;;;;8.45;100.00;102346.25;5234737;28;20158;-70
2022/10/07 06:38:48;;;;;;;16.57;4.77;;;;;;;8.52;100.00;102356.56;5235235;28;20379;-69
2022/10/07 06:41:20;;;;;;;22.20;5.33;;;;;;;8.52;100.00;102360.00;5238909;28;20071;-73
2022/10/07 06:43:55;;;;;;;15.97;5.13;;;;;;;8.56;100.00;102355.59;5241126;28;20045;-73
2022/10/07 06:46:26;;;;;;;22.75;6.25;;;;;;;8.62;100.00;102355.44;5250856;28;20064;-72
2022/10/07 06:48:57;;;;;;;17.83;4.67;;;;;;;8.66;100.00;102356.19;5249499;28;20060;-73
2022/10/07 06:51:28;;;;;;;18.97;4.20;;;;;;;8.59;100.00;102342.44;5254729;28;20043;-73
2022/10/07 06:54:00;;;;;;;21.73;5.43;;;;;;;8.66;100.00;102349.22;5253172;28;20036;-73
2022/10/07 06:56:31;;;;;;;19.23;4.27;;;;;;;8.73;100.00;102351.66;5256477;28;20021;-73
2022/10/07 06:59:02;;;;;;;20.93;5.23;;;;;;;8.74;100.00;102354.25;5254688;28;20083;-71
2022/10/07 07:01:34;;;;;;;15.47;4.43;;;;;;;8.72;100.00;102358.63;5256184;28;20031;-70
2022/10/07 07:04:05;;;;;;;14.93;4.40;;;;;;;8.83;100.00;102360.97;5255705;28;20098;-71
2022/10/07 07:06:37;;;;;;;22.30;5.47;;;;;;;8.86;100.00;102360.88;5255551;28;20076;-71
2022/10/07 07:09:09;;;;;;;17.03;4.07;;;;;;;8.94;100.00;102348.44;5255801;28;20017;-70
2022/10/07 07:11:42;;;;;;;16.17;3.80;;;;;;;9.01;100.00;102364.78;5255973;28;20059;-71
2022/10/07 07:14:13;;;;;;;15.97;4.20;;;;;;;9.05;100.00;102355.13;5255799;28;20028;-70
2022/10/07 07:16:44;;;;;;;15.07;4.37;;;;;;;9.01;100.00;102348.25;5255795;28;20389;-71
2022/10/07 07:19:16;;;;;;;20.30;4.87;;;;;;;9.11;100.00;102354.09;5255853;28;20020;-71
2022/10/07 07:21:47;;;;;;;21.50;4.27;;;;;;;9.15;100.00;102355.69;5254242;28;20029;-71
2022/10/07 07:24:18;;;;;;;21.37;4.93;;;;;;;9.20;100.00;102367.72;5252955;28;20051;-71
2022/10/07 07:26:49;;;;;;;13.70;4.47;;;;;;;9.22;100.00;102365.06;5253977;28;20027;-71
2022/10/07 07:29:21;;;;;;;18.13;5.53;;;;;;;9.27;100.00;102354.47;5253299;28;20078;-71
2022/10/07 07:31:52;;;;;;;17.53;4.83;;;;;;;9.40;100.00;102371.53;5253771;28;20024;-72
2022/10/07 07:34:24;;;;;;;26.90;5.20;;;;;;;9.53;100.00;102368.53;5258302;28;20071;-72
2022/10/07 07:36:56;;;;;;;18.23;4.57;;;;;;;9.62;100.00;102349.91;5245804;28;20029;-71
2022/10/07 07:39:27;;;;;;;13.93;3.77;;;;;;;9.74;100.00;102355.69;5234096;28;20381;-71
2022/10/07 07:41:58;;;;;;;21.43;4.90;;;;;;;9.84;100.00;102359.72;5252355;28;20040;-72
2022/10/07 07:44:30;;;;;;;23.57;5.47;;;;;;;9.95;100.00;102351.50;5227338;28;20460;-71
2022/10/07 07:47:01;;;;;;;12.37;3.67;;;;;;;10.03;100.00;102354.72;5244396;28;20099;-73
2022/10/07 07:49:34;;;;;;;20.60;4.07;;;;;;;10.10;100.00;102350.16;5243517;28;20220;-72
2022/10/07 07:52:06;;;;;;;11.57;3.67;;;;;;;10.21;100.00;102346.31;5239585;28;20033;-72
2022/10/07 07:54:38;;;;;;;23.63;6.30;;;;;;;10.32;100.00;102353.78;5261761;28;20028;-73
2022/10/07 07:57:09;;;;;;;20.13;5.80;;;;;;;10.37;100.00;102350.09;5273186;28;20379;-72
2022/10/07 07:59:41;;;;;;;17.10;4.03;;;;;;;10.48;100.00;102335.78;5273415;28;20036;-72
2022/10/07 08:02:12;;;;;;;22.07;7.53;;;;;;;10.99;100.00;102351.44;5273457;28;20016;-72
2022/10/07 08:04:44;;;;;;;13.33;3.67;;;;;;;11.33;100.00;102344.91;5273445;28;20518;-73
2022/10/07 08:07:15;;;;;;;14.37;3.67;;;;;;;11.83;100.00;102345.56;5271237;28;20077;-72
2022/10/07 08:09:46;;;;;;;14.53;3.80;;;;;;;12.37;100.00;102349.50;5274535;28;20103;-72
2022/10/07 08:12:19;;;;;;;15.50;4.47;;;;;;;13.33;100.00;102345.25;5272806;28;20055;-72
2022/10/07 08:14:51;;;;;;;14.07;3.30;;;;;;;14.15;92.41;102343.06;5274142;28;20033;-70
2022/10/07 08:17:23;;;;;;;19.17;3.30;;;;;;;15.47;87.68;102340.44;5273727;28;20418;-71
2022/10/07 08:19:55;;;;;;;14.47;4.30;;;;;;;16.31;81.30;102318.03;5271793;28;20069;-72
2022/10/07 08:22:26;;;;;;;17.50;3.80;;;;;;;16.69;73.22;102328.03;5272534;28;20406;-72
2022/10/07 08:24:59;;;;;;;14.57;4.00;;;;;;;17.61;71.04;102317.88;5272732;28;20021;-72
2022/10/07 08:27:30;;;;;;;15.57;3.20;;;;;;;18.32;67.04;102320.22;5272297;28;20025;-72
2022/10/07 08:30:01;;;;;;;17.20;3.67;;;;;;;18.81;65.60;102325.66;5264688;28;20068;-71
2022/10/07 08:32:33;;;;;;;19.37;4.17;;;;;;;18.26;56.79;102328.56;5252899;28;20021;-72
2022/10/07 08:35:04;;;;;;;12.77;4.23;;;;;;;17.74;58.24;102328.50;5250915;28;20430;-72
2022/10/07 08:37:36;;;;;;;20.00;3.87;;;;;;;18.21;57.49;102336.00;5251747;28;20017;-72
2022/10/07 08:40:14;;;;;;;12.37;3.30;;;;;;;19.44;56.75;102334.47;5252335;28;20021;-72
2022/10/07 08:42:46;;;;;;;16.50;4.03;;;;;;;19.80;52.19;102314.03;5250576;28;20032;-72
2022/10/07 08:45:26;;;;;;;13.87;3.50;;;;;;;20.06;52.60;102318.34;5250908;28;20056;-72
2022/10/07 08:48:01;;;;;;;9.88;3.33;;;;;;;20.45;52.02;102312.69;5252274;28;20107;-72
2022/10/07 08:50:55;;;;;;;12.68;4.22;;;;;;;21.30;50.82;102311.31;5251215;28;20025;-72
2022/10/07 08:53:35;;;;;;;12.10;3.72;;;;;;;22.11;50.41;102312.59;5250046;28;20032;-72
2022/10/07 08:56:14;;;;;;;17.40;4.13;;;;;;;22.47;47.96;102299.66;5249932;28;20031;-72
2022/10/07 08:59:01;;;;;;;16.67;4.45;;;;;;;22.33;47.87;102298.22;5250717;28;20025;-72
2022/10/07 09:01:51;;;;;;;10.55;3.35;;;;;;;23.03;47.41;102293.03;5250107;28;20530;-72
2022/10/07 09:04:36;;;;;;;11.23;3.58;;;;;;;22.35;47.28;102287.41;5241965;28;20079;-71
2022/10/07 09:07:17;;;;;;;12.27;4.10;;;;;;;22.08;46.68;102283.50;5241913;28;20036;-73
2022/10/07 09:09:55;;;;;;;16.48;4.53;;;;;;;21.95;45.55;102284.56;5252606;28;20049;-73
2022/10/07 09:12:45;;;;;;;14.23;3.67;;;;;;;23.29;46.71;102293.31;5254072;28;20762;-73
2022/10/07 09:15:45;;;;;;;14.00;3.60;;;;;;;24.12;45.50;102291.03;5253323;28;20375;-73
2022/10/07 09:18:28;;;;;;;11.20;3.67;;;;;;;25.06;39.98;102289.28;5234241;28;20067;-73
2022/10/07 09:21:04;;;;;;;14.90;3.83;;;;;;;24.46;40.06;102278.94;5251297;28;20032;-73
2022/10/07 09:23:36;;;;;;;12.02;3.58;;;;;;;25.18;37.65;102282.69;5250662;28;20101;-73
2022/10/07 09:26:11;;;;;;;12.88;3.08;;;;;;;25.96;36.81;102284.72;5251068;28;20434;-73
2022/10/07 09:28:42;;;;;;;12.32;3.47;;;;;;;26.09;36.21;102274.38;5251266;28;20063;-73
2022/10/07 09:31:15;;;;;;;14.00;3.28;;;;;;;26.48;35.24;102266.00;5251538;28;20104;-73
2022/10/07 09:33:49;;;;;;;18.15;4.25;;;;;;;25.76;36.82;102279.63;5251317;28;20475;-73
2022/10/07 09:36:20;;;;;;;12.73;3.40;;;;;;;26.29;35.25;102268.78;5250885;28;20438;-73
2022/10/07 09:38:52;;;;;;;17.40;4.50;;;;;;;26.25;35.28;102272.78;5250512;28;20104;-74
2022/10/07 09:41:30;;;;;;;11.52;3.53;;;;;;;27.12;35.52;102268.13;5251376;28;20083;-73
2022/10/07 09:44:14;;;;;;;16.42;3.70;;;;;;;26.81;33.62;102266.91;5250758;28;20575;-73
2022/10/07 09:46:52;;;;;;;12.57;3.90;;;;;;;26.50;34.65;102253.22;5254785;28;20124;-73
2022/10/07 09:49:28;;;;;;;13.65;3.72;;;;;;;24.59;36.41;102261.69;5255740;28;20029;-73
2022/10/07 09:52:23;;;;;;;12.02;3.38;;;;;;;25.52;35.29;102256.94;5254562;28;20048;-73
2022/10/07 09:55:21;;;;;;;8.02;3.25;;;;;;;25.87;34.79;102253.50;5254232;28;20545;-73
2022/10/07 09:58:01;;;;;;;10.30;3.35;;;;;;;25.92;35.91;102251.19;5257611;28;20033;-74
2022/10/07 10:00:41;;;;;;;15.60;3.85;;;;;;;25.58;36.35;102256.34;5234762;28;20065;-73
2022/10/07 10:03:13;;;;;;;12.57;3.35;;;;;;;24.81;35.75;102238.97;5234715;28;20029;-73
2022/10/07 10:05:57;;;;;;;11.48;3.10;;;;;;;24.57;37.57;102243.09;5234269;28;20180;-73
2022/10/07 10:08:32;;;;;;;17.77;3.67;;;;;;;24.30;36.74;102244.78;5234822;28;20014;-73
2022/10/07 10:11:21;;;;;;;13.27;3.95;;;;;;;23.04;38.91;102242.13;5234076;28;20037;-73
2022/10/07 10:13:53;;;;;;;12.68;3.38;;;;;;;23.47;38.54;102235.66;5234307;28;20108;-73
2022/10/07 10:16:24;;;;;;;12.77;3.50;;;;;;;22.96;38.69;102240.19;5234518;28;20048;-73
2022/10/07 10:19:00;;;;;;;13.00;3.92;;;;;;;22.94;39.11;102218.09;5234650;28;20021;-73
2022/10/07 10:21:40;;;;;;;12.05;3.40;;;;;;;22.44;40.61;102219.00;5233594;28;20014;-73
2022/10/07 10:24:14;;;;;;;17.98;4.30;;;;;;;22.53;40.82;102217.34;5242077;28;20628;-73
2022/10/07 10:26:58;;;;;;;11.65;3.17;;;;;;;22.04;41.67;102212.72;5254730;28;20013;-73
2022/10/07 10:30:01;;;;;;;9.52;2.97;;;;;;;22.50;41.27;102209.63;5255331;28;20029;-73
2022/10/07 10:32:52;;;;;;;16.80;4.05;;;;;;;21.99;41.35;102195.28;5255319;28;20044;-72
2022/10/07 10:35:26;;;;;;;12.30;3.20;;;;;;;21.70;42.64;102185.31;5255219;28;20112;-72
2022/10/07 10:38:24;;;;;;;14.35;4.03;;;;;;;21.93;41.80;102189.66;5253281;28;20121;-73
2022/10/07 10:41:14;;;;;;;8.38;2.63;;;;;;;21.87;42.02;102180.41;5254783;28;20040;-72
2022/10/07 10:44:18;;;;;;;17.00;3.28;;;;;;;21.86;42.21;102179.53;5255194;28;20104;-73
2022/10/07 10:47:24;;;;;;;11.27;3.10;;;;;;;21.83;41.59;102174.47;5249703;28;20421;-72
2022/10/07 10:50:20;;;;;;;14.43;3.08;;;;;;;21.56;41.80;102169.69;5253171;28;20032;-73
2022/10/07 10:53:28;;;;;;;13.00;3.45;;;;;;;21.30;42.38;102170.09;5256687;28;20033;-72
2022/10/07 10:56:12;;;;;;;12.55;3.47;;;;;;;21.03;42.37;102156.34;5255677;28;20344;-72
2022/10/07 10:59:03;;;;;;;10.05;3.45;;;;;;;21.03;43.47;102159.84;5254231;28;20032;-71
2022/10/07 11:01:38;;;;;;;12.75;2.72;;;;;;;21.11;42.94;102161.00;5257480;28;20488;-72
2022/10/07 11:04:23;;;;;;;11.82;4.20;;;;;;;21.14;42.51;102158.09;5255904;28;20068;-71
2022/10/07 11:07:06;;;;;;;10.88;3.05;;;;;;;21.09;43.31;102149.63;5255379;28;20101;-71
2022/10/07 11:09:52;;;;;;;12.40;2.70;;;;;;;20.92;44.57;102149.22;5256275;28;20040;-72
2022/10/07 11:12:31;;;;;;;11.27;3.08;;;;;;;21.02;42.84;102138.66;5256116;28;20135;-71
2022/10/07 11:15:20;;;;;;;11.10;3.10;;;;;;;20.95;43.15;102143.66;5254336;28;20063;-72
2022/10/07 11:17:55;;;;;;;12.88;3.30;;;;;;;20.90;42.95;102135.19;5254052;28;20063;-73
2022/10/07 11:20:32;;;;;;;13.30;3.05;;;;;;;20.96;42.92;102139.19;5253133;28;20025;-72
2022/10/07 11:23:24;;;;;;;15.88;3.97;;;;;;;21.02;42.80;102131.53;5253248;28;20021;-72
2022/10/07 11:26:01;;;;;;;10.13;2.90;;;;;;;20.90;42.88;102129.88;5252373;28;20112;-71
2022/10/07 11:28:35;;;;;;;11.00;2.60;;;;;;;20.76;42.53;102129.22;5254235;28;20029;-71
2022/10/07 11:31:17;;;;;;;11.93;3.33;;;;;;;20.79;43.27;102120.09;5253490;28;20025;-71
2022/10/07 11:34:13;;;;;;;11.00;3.60;;;;;;;20.79;43.94;102117.44;5253990;28;20033;-71
2022/10/07 11:37:12;;;;;;;13.30;4.15;;;;;;;20.80;44.39;102112.00;5251546;28;20525;-72
2022/10/07 11:39:43;;;;;;;11.03;2.73;;;;;;;20.77;43.30;102098.13;5252862;28;20023;-72
2022/10/07 11:42:21;;;;;;;9.63;3.00;;;;;;;20.77;43.33;102088.28;5252061;28;20029;-72
2022/10/07 11:45:07;;;;;;;13.07;3.10;;;;;;;20.77;44.74;102080.31;5251656;28;20044;-72
2022/10/07 11:47:47;;;;;;;16.25;3.85;;;;;;;20.83;44.04;102068.31;5258315;28;20021;-73
2022/10/07 11:50:26;;;;;;;9.07;2.88;;;;;;;20.49;45.25;102068.50;5251851;28;20158;-72
2022/10/07 11:53:24;;;;;;;14.60;3.83;;;;;;;20.81;43.76;102064.94;5251307;28;20028;-73
2022/10/07 11:56:00;;;;;;;11.15;3.45;;;;;;;20.70;43.58;102059.69;5253567;28;20561;-73
2022/10/07 11:58:37;;;;;;;13.17;2.67;;;;;;;20.70;44.16;102065.81;5252077;28;20079;-73
2022/10/07 12:01:24;;;;;;;12.80;3.17;;;;;;;20.83;44.31;102047.00;5252764;28;20479;-73